sensor_id;sensor_type;location;lat;lon;timestamp;pressure;altitude;pressure_sealevel;temperature;humidity
8543;BME280;4309;42.658;23.380;2023-03-01T00:00:14;95232.53;;;6.50;93.39
8543;BME280;4309;42.658;23.380;2023-03-01T00:00:46;95235.13;;;6.50;93.75
8543;BME280;4309;42.658;23.380;2023-03-01T00:01:20;95226.72;;;6.48;93.54
8543;BME280;4309;42.658;23.380;2023-03-01T00:01:53;95222.69;;;6.46;93.14
8543;BME280;4309;42.658;23.380;2023-03-01T00:02:24;95236.47;;;6.46;93.17
8543;BME280;4309;42.658;23.380;2023-03-01T00:02:56;95227.72;;;6.47;92.67
8543;BME280;4309;42.658;23.380;2023-03-01T00:03:28;95225.53;;;6.51;93.00
8543;BME280;4309;42.658;23.380;2023-03-01T00:04:00;95235.50;;;6.47;93.32
8543;BME280;4309;42.658;23.380;2023-03-01T00:04:31;95233.22;;;6.44;94.01
8543;BME280;4309;42.658;23.380;2023-03-01T00:05:03;95230.63;;;6.44;93.25
8543;BME280;4309;42.658;23.380;2023-03-01T00:05:35;95231.00;;;6.41;93.50
8543;BME280;4309;42.658;23.380;2023-03-01T00:06:08;95222.69;;;6.46;93.33
8543;BME280;4309;42.658;23.380;2023-03-01T00:06:38;95229.50;;;6.47;93.25
8543;BME280;4309;42.658;23.380;2023-03-01T00:07:12;95223.28;;;6.48;93.36
8543;BME280;4309;42.658;23.380;2023-03-01T00:07:43;95228.66;;;6.46;93.28
8543;BME280;4309;42.658;23.380;2023-03-01T00:08:13;95227.53;;;6.49;93.11
8543;BME280;4309;42.658;23.380;2023-03-01T00:08:47;95226.72;;;6.48;93.14
8543;BME280;4309;42.658;23.380;2023-03-01T00:09:19;95221.50;;;6.48;93.46
8543;BME280;4309;42.658;23.380;2023-03-01T00:09:51;95230.91;;;6.49;93.26
8543;BME280;4309;42.658;23.380;2023-03-01T00:10:22;95223.19;;;6.56;92.62
8543;BME280;4309;42.658;23.380;2023-03-01T00:11:01;95226.34;;;6.51;93.22
8543;BME280;4309;42.658;23.380;2023-03-01T00:11:34;95219.72;;;6.49;93.10
8543;BME280;4309;42.658;23.380;2023-03-01T00:12:07;95220.88;;;6.46;93.00
8543;BME280;4309;42.658;23.380;2023-03-01T00:12:38;95224.22;;;6.40;93.15
8543;BME280;4309;42.658;23.380;2023-03-01T00:13:10;95221.69;;;6.47;92.13
8543;BME280;4309;42.658;23.380;2023-03-01T00:13:41;95221.88;;;6.45;92.61
8543;BME280;4309;42.658;23.380;2023-03-01T00:14:15;95230.03;;;6.42;92.54
8543;BME280;4309;42.658;23.380;2023-03-01T00:14:47;95221.97;;;6.37;92.87
8543;BME280;4309;42.658;23.380;2023-03-01T00:15:21;95233.53;;;6.35;93.31
8543;BME280;4309;42.658;23.380;2023-03-01T00:15:54;95224.13;;;6.33;93.60
8543;BME280;4309;42.658;23.380;2023-03-01T00:16:26;95226.91;;;6.32;93.91
8543;BME280;4309;42.658;23.380;2023-03-01T00:16:58;95222.53;;;6.32;93.40
8543;BME280;4309;42.658;23.380;2023-03-01T00:17:31;95223.16;;;6.35;93.46
8543;BME280;4309;42.658;23.380;2023-03-01T00:18:03;95227.97;;;6.38;94.30
8543;BME280;4309;42.658;23.380;2023-03-01T00:19:07;95216.41;;;6.40;93.77
8543;BME280;4309;42.658;23.380;2023-03-01T00:19:42;95216.41;;;6.40;93.10
8543;BME280;4309;42.658;23.380;2023-03-01T00:20:14;95219.81;;;6.41;93.21
8543;BME280;4309;42.658;23.380;2023-03-01T00:20:49;95216.41;;;6.40;92.96
8543;BME280;4309;42.658;23.380;2023-03-01T00:21:23;95214.91;;;6.46;92.86
8543;BME280;4309;42.658;23.380;2023-03-01T00:21:55;95219.66;;;6.42;93.85
8543;BME280;4309;42.658;23.380;2023-03-01T00:22:27;95213.63;;;6.42;93.26
8543;BME280;4309;42.658;23.380;2023-03-01T00:23:03;95211.84;;;6.42;93.08
8543;BME280;4309;42.658;23.380;2023-03-01T00:23:35;95208.06;;;6.45;93.89
8543;BME280;4309;42.658;23.380;2023-03-01T00:24:08;95213.09;;;6.46;93.43
8543;BME280;4309;42.658;23.380;2023-03-01T00:24:41;95209.53;;;6.47;92.98
8543;BME280;4309;42.658;23.380;2023-03-01T00:25:13;95208.53;;;6.48;92.28
8543;BME280;4309;42.658;23.380;2023-03-01T00:25:45;95210.38;;;6.54;93.00
8543;BME280;4309;42.658;23.380;2023-03-01T00:26:18;95202.97;;;6.51;92.90
8543;BME280;4309;42.658;23.380;2023-03-01T00:26:52;95201.56;;;6.49;92.91
8543;BME280;4309;42.658;23.380;2023-03-01T00:27:24;95201.47;;;6.42;92.88
8543;BME280;4309;42.658;23.380;2023-03-01T00:27:56;95201.00;;;6.39;92.29
8543;BME280;4309;42.658;23.380;2023-03-01T00:28:29;95200.19;;;6.38;92.63
8543;BME280;4309;42.658;23.380;2023-03-01T00:29:01;95197.00;;;6.36;92.42
8543;BME280;4309;42.658;23.380;2023-03-01T00:29:34;95199.94;;;6.33;92.49
8543;BME280;4309;42.658;23.380;2023-03-01T00:30:07;95207.38;;;6.36;93.27
8543;BME280;4309;42.658;23.380;2023-03-01T00:31:19;95197.66;;;6.23;92.81
8543;BME280;4309;42.658;23.380;2023-03-01T00:31:52;95199.44;;;6.23;93.44
8543;BME280;4309;42.658;23.380;2023-03-01T00:32:24;95207.22;;;6.23;93.64
8543;BME280;4309;42.658;23.380;2023-03-01T00:32:55;95196.00;;;6.22;93.56
8543;BME280;4309;42.658;23.380;2023-03-01T00:33:27;95195.22;;;6.22;93.04
8543;BME280;4309;42.658;23.380;2023-03-01T00:34:01;95203.16;;;6.20;93.61
8543;BME280;4309;42.658;23.380;2023-03-01T00:34:34;95189.94;;;6.15;93.68
8543;BME280;4309;42.658;23.380;2023-03-01T00:35:08;95191.38;;;6.18;93.32
8543;BME280;4309;42.658;23.380;2023-03-01T00:35:40;95194.31;;;6.15;93.80
8543;BME280;4309;42.658;23.380;2023-03-01T00:36:14;95194.88;;;6.10;93.80
8543;BME280;4309;42.658;23.380;2023-03-01T00:36:46;95193.88;;;6.11;93.34
8543;BME280;4309;42.658;23.380;2023-03-01T00:37:20;95185.13;;;6.12;93.59
8543;BME280;4309;42.658;23.380;2023-03-01T00:37:52;95189.50;;;6.12;94.38
8543;BME280;4309;42.658;23.380;2023-03-01T00:38:29;95182.69;;;6.11;94.02
8543;BME280;4309;42.658;23.380;2023-03-01T00:39:03;95189.13;;;6.15;93.71
8543;BME280;4309;42.658;23.380;2023-03-01T00:39:35;95190.13;;;6.14;93.62
8543;BME280;4309;42.658;23.380;2023-03-01T00:40:08;95187.72;;;6.12;93.39
8543;BME280;4309;42.658;23.380;2023-03-01T00:40:41;95186.34;;;6.16;93.78
8543;BME280;4309;42.658;23.380;2023-03-01T00:41:15;95188.69;;;6.11;93.93
8543;BME280;4309;42.658;23.380;2023-03-01T00:41:47;95180.72;;;6.13;93.43
8543;BME280;4309;42.658;23.380;2023-03-01T00:42:21;95190.50;;;6.11;93.84
8543;BME280;4309;42.658;23.380;2023-03-01T00:42:53;95183.66;;;6.10;93.64
8543;BME280;4309;42.658;23.380;2023-03-01T00:43:25;95182.69;;;6.11;94.37
8543;BME280;4309;42.658;23.380;2023-03-01T00:43:59;95183.03;;;6.08;93.71
8543;BME280;4309;42.658;23.380;2023-03-01T00:44:31;95174.28;;;6.09;93.91
8543;BME280;4309;42.658;23.380;2023-03-01T00:45:03;95187.81;;;6.04;94.08
8543;BME280;4309;42.658;23.380;2023-03-01T00:45:37;95186.16;;;6.03;93.96
8543;BME280;4309;42.658;23.380;2023-03-01T00:46:11;95187.97;;;6.03;93.85
8543;BME280;4309;42.658;23.380;2023-03-01T00:46:45;95183.75;;;6.02;94.41
8543;BME280;4309;42.658;23.380;2023-03-01T00:47:17;95177.41;;;6.04;95.17
8543;BME280;4309;42.658;23.380;2023-03-01T00:47:49;95183.75;;;6.02;95.05
8543;BME280;4309;42.658;23.380;2023-03-01T00:48:21;95187.34;;;6.01;94.67
8543;BME280;4309;42.658;23.380;2023-03-01T00:48:54;95180.56;;;6.00;94.81
8543;BME280;4309;42.658;23.380;2023-03-01T00:49:26;95188.94;;;6.02;95.42
8543;BME280;4309;42.658;23.380;2023-03-01T00:50:00;95182.34;;;5.99;95.18
8543;BME280;4309;42.658;23.380;2023-03-01T00:50:32;95190.31;;;5.98;95.62
8543;BME280;4309;42.658;23.380;2023-03-01T00:51:08;95185.94;;;5.98;95.51
8543;BME280;4309;42.658;23.380;2023-03-01T00:51:41;95184.13;;;5.99;94.70
8543;BME280;4309;42.658;23.380;2023-03-01T00:52:13;95190.75;;;6.01;95.42
8543;BME280;4309;42.658;23.380;2023-03-01T00:52:45;95189.31;;;5.99;95.31
8543;BME280;4309;42.658;23.380;2023-03-01T00:53:18;95182.53;;;5.98;94.89
8543;BME280;4309;42.658;23.380;2023-03-01T00:53:51;95180.28;;;5.95;95.39
8543;BME280;4309;42.658;23.380;2023-03-01T00:54:25;95181.25;;;5.94;95.24
8543;BME280;4309;42.658;23.380;2023-03-01T00:54:59;95185.94;;;5.98;94.73
8543;BME280;4309;42.658;23.380;2023-03-01T00:55:31;95179.75;;;5.99;95.08
8543;BME280;4309;42.658;23.380;2023-03-01T00:56:05;95188.69;;;5.97;95.60
8543;BME280;4309;42.658;23.380;2023-03-01T00:56:37;95182.06;;;5.94;95.23
8543;BME280;4309;42.658;23.380;2023-03-01T00:57:12;95185.47;;;5.95;95.53
8543;BME280;4309;42.658;23.380;2023-03-01T00:57:44;95180.00;;;5.90;95.33
8543;BME280;4309;42.658;23.380;2023-03-01T00:58:16;95184.03;;;5.92;96.35
8543;BME280;4309;42.658;23.380;2023-03-01T00:58:49;95177.88;;;5.93;95.04
8543;BME280;4309;42.658;23.380;2023-03-01T00:59:22;95181.59;;;5.91;95.24
8543;BME280;4309;42.658;23.380;2023-03-01T00:59:54;95171.41;;;5.89;96.25
8543;BME280;4309;42.658;23.380;2023-03-01T01:00:27;95179.19;;;5.89;95.63
8543;BME280;4309;42.658;23.380;2023-03-01T01:01:00;95181.00;;;5.89;96.33
8543;BME280;4309;42.658;23.380;2023-03-01T01:01:32;95176.78;;;5.88;96.08
8543;BME280;4309;42.658;23.380;2023-03-01T01:02:07;95177.88;;;5.93;96.22
8543;BME280;4309;42.658;23.380;2023-03-01T01:02:39;95176.41;;;5.91;95.91
8543;BME280;4309;42.658;23.380;2023-03-01T01:03:11;95178.06;;;5.92;96.42
8543;BME280;4309;42.658;23.380;2023-03-01T01:03:46;95180.47;;;5.93;95.97
8543;BME280;4309;42.658;23.380;2023-03-01T01:04:18;95180.47;;;5.93;95.58
8543;BME280;4309;42.658;23.380;2023-03-01T01:04:52;95179.28;;;5.96;96.40
8543;BME280;4309;42.658;23.380;2023-03-01T01:05:24;95177.88;;;5.93;95.91
8543;BME280;4309;42.658;23.380;2023-03-01T01:05:56;95178.47;;;5.95;95.87
8543;BME280;4309;42.658;23.380;2023-03-01T01:06:29;95181.88;;;5.96;95.13
8543;BME280;4309;42.658;23.380;2023-03-01T01:07:02;95179.28;;;5.96;95.93
8543;BME280;4309;42.658;23.380;2023-03-01T01:07:34;95187.06;;;5.96;95.70
8543;BME280;4309;42.658;23.380;2023-03-01T01:08:06;95182.06;;;5.94;95.73
8543;BME280;4309;42.658;23.380;2023-03-01T01:08:38;95184.03;;;5.92;94.41
8543;BME280;4309;42.658;23.380;2023-03-01T01:09:13;95177.59;;;5.88;95.59
8543;BME280;4309;42.658;23.380;2023-03-01T01:09:48;95179.19;;;5.89;95.25
8543;BME280;4309;42.658;23.380;2023-03-01T01:10:20;95181.59;;;5.91;95.94
8543;BME280;4309;42.658;23.380;2023-03-01T01:10:53;95186.00;;;5.90;95.10
8543;BME280;4309;42.658;23.380;2023-03-01T01:11:26;95180.81;;;5.90;95.70
8543;BME280;4309;42.658;23.380;2023-03-01T01:11:59;95178.41;;;5.89;95.59
8543;BME280;4309;42.658;23.380;2023-03-01T01:12:32;95178.22;;;5.90;95.14
8543;BME280;4309;42.658;23.380;2023-03-01T01:13:04;95177.59;;;5.88;94.99
8543;BME280;4309;42.658;23.380;2023-03-01T01:13:37;95185.19;;;5.90;95.35
8543;BME280;4309;42.658;23.380;2023-03-01T01:14:08;95188.63;;;5.90;95.94
8543;BME280;4309;42.658;23.380;2023-03-01T01:14:42;95186.81;;;5.91;95.66
8543;BME280;4309;42.658;23.380;2023-03-01T01:15:14;95176.59;;;5.89;95.29
8543;BME280;4309;42.658;23.380;2023-03-01T01:15:47;95184.22;;;5.91;95.92
8543;BME280;4309;42.658;23.380;2023-03-01T01:16:23;95179.00;;;5.91;95.58
8543;BME280;4309;42.658;23.380;2023-03-01T01:16:56;95181.59;;;5.91;95.77
8543;BME280;4309;42.658;23.380;2023-03-01T01:17:31;95189.03;;;5.94;95.74
8543;BME280;4309;42.658;23.380;2023-03-01T01:18:04;95182.25;;;5.93;95.63
8543;BME280;4309;42.658;23.380;2023-03-01T01:18:36;95182.06;;;5.94;95.54
8543;BME280;4309;42.658;23.380;2023-03-01T01:19:09;95184.22;;;5.91;94.58
8543;BME280;4309;42.658;23.380;2023-03-01T01:19:42;95188.44;;;5.92;95.01
8543;BME280;4309;42.658;23.380;2023-03-01T01:20:15;95179.00;;;5.91;95.22
8543;BME280;4309;42.658;23.380;2023-03-01T01:20:47;95181.25;;;5.94;95.46
8543;BME280;4309;42.658;23.380;2023-03-01T01:21:22;95182.88;;;5.95;94.91
8543;BME280;4309;42.658;23.380;2023-03-01T01:21:56;95184.47;;;5.96;94.38
8543;BME280;4309;42.658;23.380;2023-03-01T01:22:28;95176.69;;;5.96;95.30
8543;BME280;4309;42.658;23.380;2023-03-01T01:23:00;95177.50;;;5.96;94.13
8543;BME280;4309;42.658;23.380;2023-03-01T01:23:32;95180.75;;;5.98;95.10
8543;BME280;4309;42.658;23.380;2023-03-01T01:24:06;95183.75;;;6.02;94.23
8543;BME280;4309;42.658;23.380;2023-03-01T01:24:38;95193.34;;;6.01;93.74
8543;BME280;4309;42.658;23.380;2023-03-01T01:25:10;95178.94;;;5.99;94.76
8543;BME280;4309;42.658;23.380;2023-03-01T01:25:43;95179.75;;;5.99;94.61
8543;BME280;4309;42.658;23.380;2023-03-01T01:26:17;95179.66;;;5.93;93.37
8543;BME280;4309;42.658;23.380;2023-03-01T01:26:50;95183.06;;;5.93;94.78
8543;BME280;4309;42.658;23.380;2023-03-01T01:27:23;95181.06;;;5.95;94.74
8543;BME280;4309;42.658;23.380;2023-03-01T01:27:55;95183.66;;;5.95;94.76
8543;BME280;4309;42.658;23.380;2023-03-01T01:28:27;95184.03;;;5.92;93.44
8543;BME280;4309;42.658;23.380;2023-03-01T01:29:04;95184.47;;;5.96;93.66
8543;BME280;4309;42.658;23.380;2023-03-01T01:29:36;95191.28;;;5.97;93.79
8543;BME280;4309;42.658;23.380;2023-03-01T01:30:10;95186.72;;;5.99;94.01
8543;BME280;4309;42.658;23.380;2023-03-01T01:30:43;95182.53;;;5.98;93.61
8543;BME280;4309;42.658;23.380;2023-03-01T01:31:16;95185.94;;;5.98;93.85
8543;BME280;4309;42.658;23.380;2023-03-01T01:31:49;95182.88;;;5.95;93.12
8543;BME280;4309;42.658;23.380;2023-03-01T01:32:21;95184.84;;;5.93;94.28
8543;BME280;4309;42.658;23.380;2023-03-01T01:32:54;95180.47;;;5.93;92.99
8543;BME280;4309;42.658;23.380;2023-03-01T01:33:27;95177.69;;;5.95;93.31
8543;BME280;4309;42.658;23.380;2023-03-01T01:34:02;95187.53;;;5.99;93.79
8543;BME280;4309;42.658;23.380;2023-03-01T01:34:34;95195.50;;;5.98;93.71
8543;BME280;4309;42.658;23.380;2023-03-01T01:35:07;95184.03;;;5.92;94.07
8543;BME280;4309;42.658;23.380;2023-03-01T01:35:40;95179.84;;;5.91;93.41
8543;BME280;4309;42.658;23.380;2023-03-01T01:36:11;95182.59;;;5.90;93.62
8543;BME280;4309;42.658;23.380;2023-03-01T01:36:47;95187.97;;;5.88;93.82
8543;BME280;4309;42.658;23.380;2023-03-01T01:37:20;95193.97;;;5.89;94.25
8543;BME280;4309;42.658;23.380;2023-03-01T01:37:52;95191.81;;;5.92;93.63
8543;BME280;4309;42.658;23.380;2023-03-01T01:39:20;95194.03;;;5.95;93.09
8543;BME280;4309;42.658;23.380;2023-03-01T01:39:53;95197.28;;;5.97;92.78
8543;BME280;4309;42.658;23.380;2023-03-01T01:40:24;95192.72;;;5.99;93.00
8543;BME280;4309;42.658;23.380;2023-03-01T01:40:56;95199.88;;;5.97;93.28
8543;BME280;4309;42.658;23.380;2023-03-01T01:41:29;95198.09;;;5.98;92.91
8543;BME280;4309;42.658;23.380;2023-03-01T01:42:02;95196.63;;;5.95;92.86
8543;BME280;4309;42.658;23.380;2023-03-01T01:42:34;95192.34;;;5.88;92.73
8543;BME280;4309;42.658;23.380;2023-03-01T01:43:11;95202.72;;;5.88;92.84
8543;BME280;4309;42.658;23.380;2023-03-01T01:44:08;95196.94;;;5.86;92.87
8543;BME280;4309;42.658;23.380;2023-03-01T01:44:42;95194.16;;;5.87;93.19
8543;BME280;4309;42.658;23.380;2023-03-01T01:45:33;95197.34;;;5.89;93.28
8543;BME280;4309;42.658;23.380;2023-03-01T01:46:14;95183.16;;;5.85;94.02
8543;BME280;4309;42.658;23.380;2023-03-01T01:46:50;95192.81;;;5.91;92.95
8543;BME280;4309;42.658;23.380;2023-03-01T01:47:25;95198.63;;;5.93;93.21
8543;BME280;4309;42.658;23.380;2023-03-01T01:48:00;95198.91;;;5.98;93.01
8543;BME280;4309;42.658;23.380;2023-03-01T01:48:39;95196.47;;;5.97;93.14
8543;BME280;4309;42.658;23.380;2023-03-01T01:49:27;95198.09;;;5.98;92.88
8543;BME280;4309;42.658;23.380;2023-03-01T01:50:01;95199.06;;;5.97;92.69
8543;BME280;4309;42.658;23.380;2023-03-01T01:50:34;95193.25;;;5.95;92.78
8543;BME280;4309;42.658;23.380;2023-03-01T01:51:13;95196.13;;;6.00;92.68
8543;BME280;4309;42.658;23.380;2023-03-01T01:51:47;95201.31;;;6.00;92.63
8543;BME280;4309;42.658;23.380;2023-03-01T01:52:24;95194.84;;;5.96;91.61
8543;BME280;4309;42.658;23.380;2023-03-01T01:52:58;95193.88;;;5.97;92.24
8543;BME280;4309;42.658;23.380;2023-03-01T01:53:30;95194.50;;;5.99;91.96
8543;BME280;4309;42.658;23.380;2023-03-01T01:54:02;95200.06;;;5.96;92.56
8543;BME280;4309;42.658;23.380;2023-03-01T01:54:50;95187.72;;;5.98;91.97
8543;BME280;4309;42.658;23.380;2023-03-01T01:55:27;95188.63;;;5.90;92.19
8543;BME280;4309;42.658;23.380;2023-03-01T01:56:00;95180.81;;;5.90;92.57
8543;BME280;4309;42.658;23.380;2023-03-01T01:56:37;95191.63;;;5.94;92.65
8543;BME280;4309;42.658;23.380;2023-03-01T01:57:14;95184.31;;;5.97;92.26
8543;BME280;4309;42.658;23.380;2023-03-01T01:57:49;95181.53;;;5.99;92.23
8543;BME280;4309;42.658;23.380;2023-03-01T01:58:25;95180.75;;;5.98;91.41
8543;BME280;4309;42.658;23.380;2023-03-01T01:59:00;95188.34;;;6.00;91.93
8543;BME280;4309;42.658;23.380;2023-03-01T01:59:32;95178.22;;;6.05;91.66
8543;BME280;4309;42.658;23.380;2023-03-01T02:00:10;95183.41;;;6.05;90.85
8543;BME280;4309;42.658;23.380;2023-03-01T02:00:43;95187.81;;;6.04;91.12
8543;BME280;4309;42.658;23.380;2023-03-01T02:01:15;95184.22;;;6.05;91.81
8543;BME280;4309;42.658;23.380;2023-03-01T02:01:48;95185.03;;;6.06;91.40
8543;BME280;4309;42.658;23.380;2023-03-01T02:02:20;95187.00;;;6.04;91.66
8543;BME280;4309;42.658;23.380;2023-03-01T02:02:56;95184.38;;;6.04;91.45
8543;BME280;4309;42.658;23.380;2023-03-01T02:03:31;95182.63;;;6.04;91.00
8543;BME280;4309;42.658;23.380;2023-03-01T02:04:09;95179.66;;;6.07;90.91
8543;BME280;4309;42.658;23.380;2023-03-01T02:04:41;95189.22;;;6.07;91.02
8543;BME280;4309;42.658;23.380;2023-03-01T02:05:17;95185.22;;;6.04;90.40
8543;BME280;4309;42.658;23.380;2023-03-01T02:05:57;95180.56;;;6.00;90.37
8543;BME280;4309;42.658;23.380;2023-03-01T02:06:32;95183.75;;;6.02;91.04
8543;BME280;4309;42.658;23.380;2023-03-01T02:07:10;95177.16;;;5.99;90.82
8543;BME280;4309;42.658;23.380;2023-03-01T02:07:46;95178.16;;;5.98;90.68
8543;BME280;4309;42.658;23.380;2023-03-01T02:08:27;95172.50;;;5.95;90.79
8543;BME280;4309;42.658;23.380;2023-03-01T02:09:06;95165.06;;;5.92;89.69
8543;BME280;4309;42.658;23.380;2023-03-01T02:09:46;95171.88;;;5.93;90.29
8543;BME280;4309;42.658;23.380;2023-03-01T02:10:19;95157.03;;;5.87;91.35
8543;BME280;4309;42.658;23.380;2023-03-01T02:10:51;95171.06;;;5.92;91.04
8543;BME280;4309;42.658;23.380;2023-03-01T02:11:25;95163.25;;;5.92;91.02
8543;BME280;4309;42.658;23.380;2023-03-01T02:11:59;95174.28;;;5.94;90.69
8543;BME280;4309;42.658;23.380;2023-03-01T02:12:34;95169.53;;;5.98;90.61
8543;BME280;4309;42.658;23.380;2023-03-01T02:13:09;95170.19;;;6.00;89.89
8543;BME280;4309;42.658;23.380;2023-03-01T02:13:41;95155.38;;;6.00;90.00
8543;BME280;4309;42.658;23.380;2023-03-01T02:14:14;95160.94;;;5.97;90.13
8543;BME280;4309;42.658;23.380;2023-03-01T02:14:47;95163.53;;;5.97;90.95
8543;BME280;4309;42.658;23.380;2023-03-01T02:15:19;95162.91;;;5.95;89.58
8543;BME280;4309;42.658;23.380;2023-03-01T02:15:51;95156.66;;;5.90;90.54
8543;BME280;4309;42.658;23.380;2023-03-01T02:16:25;95160.13;;;5.97;90.52
8543;BME280;4309;42.658;23.380;2023-03-01T02:16:57;95166.78;;;5.99;89.65
8543;BME280;4309;42.658;23.380;2023-03-01T02:17:30;95167.59;;;6.00;90.05
8543;BME280;4309;42.658;23.380;2023-03-01T02:18:03;95166.59;;;6.01;90.06
8543;BME280;4309;42.658;23.380;2023-03-01T02:18:38;95168.38;;;6.00;90.92
8543;BME280;4309;42.658;23.380;2023-03-01T02:19:19;95161.56;;;5.99;89.60
8543;BME280;4309;42.658;23.380;2023-03-01T02:20:03;95168.09;;;5.95;90.71
8543;BME280;4309;42.658;23.380;2023-03-01T02:20:44;95171.06;;;5.92;90.05
8543;BME280;4309;42.658;23.380;2023-03-01T02:21:34;95167.66;;;5.92;89.56
8543;BME280;4309;42.658;23.380;2023-03-01T02:22:15;95168.91;;;5.96;90.50
8543;BME280;4309;42.658;23.380;2023-03-01T02:22:53;95167.91;;;5.97;90.84
8543;BME280;4309;42.658;23.380;2023-03-01T02:23:27;95179.28;;;5.96;90.33
8543;BME280;4309;42.658;23.380;2023-03-01T02:24:04;95168.09;;;5.95;89.93
8543;BME280;4309;42.658;23.380;2023-03-01T02:24:48;95173.28;;;5.95;89.42
8543;BME280;4309;42.658;23.380;2023-03-01T02:25:33;95172.31;;;5.96;90.01
8543;BME280;4309;42.658;23.380;2023-03-01T02:26:08;95167.13;;;5.96;90.28
8543;BME280;4309;42.658;23.380;2023-03-01T02:26:48;95172.94;;;5.98;90.55
8543;BME280;4309;42.658;23.380;2023-03-01T02:27:23;95176.69;;;5.96;89.71
8543;BME280;4309;42.658;23.380;2023-03-01T02:28:02;95176.06;;;5.94;90.44
8543;BME280;4309;42.658;23.380;2023-03-01T02:28:44;95169.91;;;5.95;90.46
8543;BME280;4309;42.658;23.380;2023-03-01T02:29:16;95171.16;;;5.99;90.70
8543;BME280;4309;42.658;23.380;2023-03-01T02:29:48;95177.31;;;5.98;90.61
8543;BME280;4309;42.658;23.380;2023-03-01T02:30:22;95171.31;;;5.97;90.57
8543;BME280;4309;42.658;23.380;2023-03-01T02:30:56;95171.50;;;5.96;90.95
8543;BME280;4309;42.658;23.380;2023-03-01T02:31:46;95166.31;;;5.96;90.47
8543;BME280;4309;42.658;23.380;2023-03-01T02:32:20;95171.50;;;5.96;90.58
8543;BME280;4309;42.658;23.380;2023-03-01T02:32:58;95168.91;;;5.96;89.96
8543;BME280;4309;42.658;23.380;2023-03-01T02:33:36;95163.91;;;5.94;91.37
8543;BME280;4309;42.658;23.380;2023-03-01T02:34:12;95168.09;;;5.95;90.49
8543;BME280;4309;42.658;23.380;2023-03-01T02:34:45;95176.69;;;5.96;90.95
8543;BME280;4309;42.658;23.380;2023-03-01T02:35:19;95167.31;;;5.95;91.00
8543;BME280;4309;42.658;23.380;2023-03-01T02:35:52;95177.69;;;5.95;90.39
8543;BME280;4309;42.658;23.380;2023-03-01T02:36:29;95180.00;;;5.90;91.16
8543;BME280;4309;42.658;23.380;2023-03-01T02:37:06;95179.00;;;5.91;90.96
8543;BME280;4309;42.658;23.380;2023-03-01T02:37:41;95177.88;;;5.93;90.72
8543;BME280;4309;42.658;23.380;2023-03-01T02:38:14;95181.59;;;5.91;91.48
8543;BME280;4309;42.658;23.380;2023-03-01T02:38:47;95181.06;;;5.95;91.67
8543;BME280;4309;42.658;23.380;2023-03-01T02:39:23;95183.84;;;5.94;92.11
8543;BME280;4309;42.658;23.380;2023-03-01T02:39:59;95178.16;;;5.98;91.58
8543;BME280;4309;42.658;23.380;2023-03-01T02:40:37;95182.16;;;6.01;90.62
8543;BME280;4309;42.658;23.380;2023-03-01T02:41:13;95176.16;;;6.00;91.03
8543;BME280;4309;42.658;23.380;2023-03-01T02:41:49;95180.88;;;5.97;91.34
8543;BME280;4309;42.658;23.380;2023-03-01T02:42:25;95182.53;;;5.98;91.93
8543;BME280;4309;42.658;23.380;2023-03-01T02:42:59;95178.94;;;5.99;90.83
8543;BME280;4309;42.658;23.380;2023-03-01T02:43:32;95187.72;;;5.98;91.48
8543;BME280;4309;42.658;23.380;2023-03-01T02:44:06;95175.38;;;6.00;91.68
8543;BME280;4309;42.658;23.380;2023-03-01T02:44:40;95176.50;;;5.97;91.37
8543;BME280;4309;42.658;23.380;2023-03-01T02:45:12;95181.06;;;5.95;91.94
8543;BME280;4309;42.658;23.380;2023-03-01T02:45:48;95176.25;;;5.92;91.94
8543;BME280;4309;42.658;23.380;2023-03-01T02:46:24;95179.47;;;5.94;91.36
8543;BME280;4309;42.658;23.380;2023-03-01T02:46:58;95175.28;;;5.93;90.87
8543;BME280;4309;42.658;23.380;2023-03-01T02:47:34;95179.38;;;5.88;91.58
8543;BME280;4309;42.658;23.380;2023-03-01T02:48:06;95174.53;;;5.85;92.23
8543;BME280;4309;42.658;23.380;2023-03-01T02:48:43;95175.53;;;5.84;91.89
8543;BME280;4309;42.658;23.380;2023-03-01T02:49:23;95178.59;;;5.87;91.38
8543;BME280;4309;42.658;23.380;2023-03-01T02:49:55;95170.63;;;5.89;92.43
8543;BME280;4309;42.658;23.380;2023-03-01T02:50:46;95173.22;;;5.89;92.17
8543;BME280;4309;42.658;23.380;2023-03-01T02:51:45;95179.19;;;5.89;92.00
8543;BME280;4309;42.658;23.380;2023-03-01T02:52:40;95176.00;;;5.87;92.39
8543;BME280;4309;42.658;23.380;2023-03-01T02:53:17;95176.00;;;5.87;91.50
8543;BME280;4309;42.658;23.380;2023-03-01T02:53:58;95173.41;;;5.87;91.55
8543;BME280;4309;42.658;23.380;2023-03-01T02:54:40;95173.59;;;5.86;92.54
8543;BME280;4309;42.658;23.380;2023-03-01T02:55:16;95174.00;;;5.89;91.56
8543;BME280;4309;42.658;23.380;2023-03-01T02:55:47;95174.63;;;5.91;91.45
8543;BME280;4309;42.658;23.380;2023-03-01T02:56:19;95174.63;;;5.91;91.62
8543;BME280;4309;42.658;23.380;2023-03-01T02:56:53;95175.00;;;5.88;91.35
8543;BME280;4309;42.658;23.380;2023-03-01T02:57:27;95167.75;;;5.84;92.16
8543;BME280;4309;42.658;23.380;2023-03-01T02:58:02;95174.72;;;5.83;91.71
8543;BME280;4309;42.658;23.380;2023-03-01T02:58:35;95176.50;;;5.83;92.42
8543;BME280;4309;42.658;23.380;2023-03-01T02:59:21;95176.84;;;5.80;92.74
8543;BME280;4309;42.658;23.380;2023-03-01T02:59:54;95169.72;;;5.82;92.70
8543;BME280;4309;42.658;23.380;2023-03-01T03:00:31;95175.53;;;5.84;92.67
8543;BME280;4309;42.658;23.380;2023-03-01T03:01:04;95166.94;;;5.83;92.40
8543;BME280;4309;42.658;23.380;2023-03-01T03:01:36;95171.13;;;5.84;92.54
8543;BME280;4309;42.658;23.380;2023-03-01T03:02:19;95175.19;;;5.87;91.83
8543;BME280;4309;42.658;23.380;2023-03-01T03:02:54;95172.59;;;5.87;92.39
8543;BME280;4309;42.658;23.380;2023-03-01T03:03:28;95170.28;;;5.92;92.48
8543;BME280;4309;42.658;23.380;2023-03-01T03:04:00;95176.78;;;5.88;91.98
8543;BME280;4309;42.658;23.380;2023-03-01T03:04:32;95173.66;;;5.92;91.70
8543;BME280;4309;42.658;23.380;2023-03-01T03:05:08;95164.63;;;5.88;92.42
8543;BME280;4309;42.658;23.380;2023-03-01T03:05:40;95173.66;;;5.92;92.47
8543;BME280;4309;42.658;23.380;2023-03-01T03:06:13;95171.06;;;5.92;91.85
8543;BME280;4309;42.658;23.380;2023-03-01T03:06:44;95169.63;;;5.90;92.05
8543;BME280;4309;42.658;23.380;2023-03-01T03:07:16;95161.50;;;5.93;91.86
8543;BME280;4309;42.658;23.380;2023-03-01T03:07:50;95171.06;;;5.92;92.73
8543;BME280;4309;42.658;23.380;2023-03-01T03:08:22;95162.84;;;5.89;91.96
8543;BME280;4309;42.658;23.380;2023-03-01T03:08:55;95161.22;;;5.88;91.70
8543;BME280;4309;42.658;23.380;2023-03-01T03:09:28;95167.56;;;5.85;92.74